sensor_id;sensor_type;location;lat;lon;timestamp;P1;durP1;ratioP1;P2;durP2;ratioP2
40515;SDS011;26216;53.724;9.898;2023-08-06T00:00:23;1.83;;;1.00;;
40515;SDS011;26216;53.724;9.898;2023-08-06T00:02:49;0.85;;;0.82;;
40515;SDS011;26216;53.724;9.898;2023-08-06T00:05:15;1.02;;;0.90;;
40515;SDS011;26216;53.724;9.898;2023-08-06T00:07:46;1.73;;;1.00;;
40515;SDS011;26216;53.724;9.898;2023-08-06T00:10:12;1.20;;;0.77;;
40515;SDS011;26216;53.724;9.898;2023-08-06T00:12:38;2.00;;;1.08;;
40515;SDS011;26216;53.724;9.898;2023-08-06T00:15:04;2.03;;;1.23;;
40515;SDS011;26216;53.724;9.898;2023-08-06T00:17:30;2.20;;;1.13;;
40515;SDS011;26216;53.724;9.898;2023-08-06T00:19:56;0.93;;;0.82;;
40515;SDS011;26216;53.724;9.898;2023-08-06T00:22:22;1.63;;;1.20;;
40515;SDS011;26216;53.724;9.898;2023-08-06T00:24:48;1.55;;;1.00;;
40515;SDS011;26216;53.724;9.898;2023-08-06T00:27:14;2.47;;;1.25;;
40515;SDS011;26216;53.724;9.898;2023-08-06T00:29:40;1.23;;;1.00;;
40515;SDS011;26216;53.724;9.898;2023-08-06T00:32:05;1.08;;;0.90;;
40515;SDS011;26216;53.724;9.898;2023-08-06T00:34:31;1.30;;;1.02;;
40515;SDS011;26216;53.724;9.898;2023-08-06T00:36:57;1.38;;;1.00;;
40515;SDS011;26216;53.724;9.898;2023-08-06T00:39:23;1.05;;;0.90;;
40515;SDS011;26216;53.724;9.898;2023-08-06T00:41:49;1.88;;;1.27;;
40515;SDS011;26216;53.724;9.898;2023-08-06T00:44:14;1.17;;;0.98;;
40515;SDS011;26216;53.724;9.898;2023-08-06T00:46:40;1.38;;;1.00;;
40515;SDS011;26216;53.724;9.898;2023-08-06T00:49:06;1.35;;;1.05;;
40515;SDS011;26216;53.724;9.898;2023-08-06T00:51:33;1.85;;;0.98;;
40515;SDS011;26216;53.724;9.898;2023-08-06T00:53:59;1.30;;;1.00;;
40515;SDS011;26216;53.724;9.898;2023-08-06T00:56:26;2.00;;;1.20;;
40515;SDS011;26216;53.724;9.898;2023-08-06T00:58:52;2.70;;;1.27;;
40515;SDS011;26216;53.724;9.898;2023-08-06T01:01:18;2.45;;;1.00;;
40515;SDS011;26216;53.724;9.898;2023-08-06T01:03:44;2.03;;;1.30;;
40515;SDS011;26216;53.724;9.898;2023-08-06T01:06:10;1.23;;;1.02;;
40515;SDS011;26216;53.724;9.898;2023-08-06T01:13:43;1.20;;;1.05;;
40515;SDS011;26216;53.724;9.898;2023-08-06T01:16:15;1.00;;;0.90;;
40515;SDS011;26216;53.724;9.898;2023-08-06T01:21:14;1.30;;;1.00;;
40515;SDS011;26216;53.724;9.898;2023-08-06T01:23:40;1.67;;;1.15;;
40515;SDS011;26216;53.724;9.898;2023-08-06T01:28:59;2.22;;;1.00;;
40515;SDS011;26216;53.724;9.898;2023-08-06T01:31:46;1.90;;;1.10;;
40515;SDS011;26216;53.724;9.898;2023-08-06T01:34:22;1.10;;;1.00;;
40515;SDS011;26216;53.724;9.898;2023-08-06T01:36:50;2.03;;;1.05;;
40515;SDS011;26216;53.724;9.898;2023-08-06T01:39:17;2.55;;;1.00;;
40515;SDS011;26216;53.724;9.898;2023-08-06T01:41:46;1.20;;;1.00;;
40515;SDS011;26216;53.724;9.898;2023-08-06T01:44:13;1.52;;;1.20;;
40515;SDS011;26216;53.724;9.898;2023-08-06T01:46:39;1.35;;;1.10;;
40515;SDS011;26216;53.724;9.898;2023-08-06T01:49:05;1.40;;;1.20;;
40515;SDS011;26216;53.724;9.898;2023-08-06T01:51:31;1.50;;;1.13;;
40515;SDS011;26216;53.724;9.898;2023-08-06T01:53:57;1.67;;;1.30;;
40515;SDS011;26216;53.724;9.898;2023-08-06T01:56:22;3.92;;;1.52;;
40515;SDS011;26216;53.724;9.898;2023-08-06T01:58:48;1.50;;;1.20;;
40515;SDS011;26216;53.724;9.898;2023-08-06T02:01:14;2.05;;;1.40;;
40515;SDS011;26216;53.724;9.898;2023-08-06T02:03:40;1.50;;;1.20;;
40515;SDS011;26216;53.724;9.898;2023-08-06T02:06:06;2.10;;;1.50;;
40515;SDS011;26216;53.724;9.898;2023-08-06T02:08:31;1.80;;;1.40;;
40515;SDS011;26216;53.724;9.898;2023-08-06T02:10:57;1.63;;;1.20;;
40515;SDS011;26216;53.724;9.898;2023-08-06T02:13:24;1.90;;;1.55;;
40515;SDS011;26216;53.724;9.898;2023-08-06T02:15:50;1.85;;;1.30;;
40515;SDS011;26216;53.724;9.898;2023-08-06T02:18:16;2.33;;;1.35;;
40515;SDS011;26216;53.724;9.898;2023-08-06T02:20:42;2.05;;;1.60;;
40515;SDS011;26216;53.724;9.898;2023-08-06T02:23:08;2.35;;;1.40;;
40515;SDS011;26216;53.724;9.898;2023-08-06T02:25:34;3.55;;;1.40;;
40515;SDS011;26216;53.724;9.898;2023-08-06T02:28:00;1.50;;;1.20;;
40515;SDS011;26216;53.724;9.898;2023-08-06T02:30:26;1.65;;;1.45;;
40515;SDS011;26216;53.724;9.898;2023-08-06T02:32:52;2.25;;;1.30;;
40515;SDS011;26216;53.724;9.898;2023-08-06T02:35:18;1.88;;;1.35;;
40515;SDS011;26216;53.724;9.898;2023-08-06T02:37:43;1.98;;;1.40;;
40515;SDS011;26216;53.724;9.898;2023-08-06T02:40:09;2.38;;;1.40;;
40515;SDS011;26216;53.724;9.898;2023-08-06T02:42:35;1.58;;;1.20;;
40515;SDS011;26216;53.724;9.898;2023-08-06T02:45:01;1.77;;;1.23;;
40515;SDS011;26216;53.724;9.898;2023-08-06T02:47:27;2.00;;;1.52;;
40515;SDS011;26216;53.724;9.898;2023-08-06T02:49:53;2.15;;;1.52;;
40515;SDS011;26216;53.724;9.898;2023-08-06T02:52:19;2.00;;;1.30;;
40515;SDS011;26216;53.724;9.898;2023-08-06T02:54:45;2.25;;;1.33;;
40515;SDS011;26216;53.724;9.898;2023-08-06T02:57:10;1.95;;;1.55;;
40515;SDS011;26216;53.724;9.898;2023-08-06T02:59:36;1.30;;;1.20;;
40515;SDS011;26216;53.724;9.898;2023-08-06T03:02:02;3.75;;;1.70;;
40515;SDS011;26216;53.724;9.898;2023-08-06T03:04:28;2.25;;;1.60;;
40515;SDS011;26216;53.724;9.898;2023-08-06T03:06:54;1.48;;;1.20;;
40515;SDS011;26216;53.724;9.898;2023-08-06T03:09:19;2.05;;;1.45;;
40515;SDS011;26216;53.724;9.898;2023-08-06T03:11:45;2.08;;;1.20;;
40515;SDS011;26216;53.724;9.898;2023-08-06T03:14:11;2.00;;;1.33;;
40515;SDS011;26216;53.724;9.898;2023-08-06T03:16:37;2.80;;;1.52;;
40515;SDS011;26216;53.724;9.898;2023-08-06T03:19:03;2.80;;;1.60;;
40515;SDS011;26216;53.724;9.898;2023-08-06T03:21:28;2.30;;;1.60;;
40515;SDS011;26216;53.724;9.898;2023-08-06T03:23:54;2.28;;;1.50;;
40515;SDS011;26216;53.724;9.898;2023-08-06T03:26:20;1.65;;;1.35;;
40515;SDS011;26216;53.724;9.898;2023-08-06T03:28:46;2.47;;;1.60;;
40515;SDS011;26216;53.724;9.898;2023-08-06T03:31:12;1.83;;;1.63;;
40515;SDS011;26216;53.724;9.898;2023-08-06T03:33:37;2.60;;;1.50;;
40515;SDS011;26216;53.724;9.898;2023-08-06T03:36:03;2.50;;;1.90;;
40515;SDS011;26216;53.724;9.898;2023-08-06T03:38:29;2.35;;;1.80;;
40515;SDS011;26216;53.724;9.898;2023-08-06T03:40:55;2.85;;;1.80;;
40515;SDS011;26216;53.724;9.898;2023-08-06T03:43:21;2.53;;;1.67;;
40515;SDS011;26216;53.724;9.898;2023-08-06T03:45:47;2.05;;;1.50;;
40515;SDS011;26216;53.724;9.898;2023-08-06T03:48:12;1.95;;;1.48;;
40515;SDS011;26216;53.724;9.898;2023-08-06T03:50:38;3.92;;;1.80;;
40515;SDS011;26216;53.724;9.898;2023-08-06T03:53:04;2.65;;;1.50;;
40515;SDS011;26216;53.724;9.898;2023-08-06T03:55:39;2.17;;;1.50;;
40515;SDS011;26216;53.724;9.898;2023-08-06T03:58:05;2.53;;;1.63;;
40515;SDS011;26216;53.724;9.898;2023-08-06T04:00:31;3.15;;;1.63;;
40515;SDS011;26216;53.724;9.898;2023-08-06T04:02:57;4.47;;;1.92;;
40515;SDS011;26216;53.724;9.898;2023-08-06T04:05:23;2.05;;;1.50;;
40515;SDS011;26216;53.724;9.898;2023-08-06T04:07:48;2.20;;;1.60;;
40515;SDS011;26216;53.724;9.898;2023-08-06T04:10:14;3.33;;;2.25;;
40515;SDS011;26216;53.724;9.898;2023-08-06T04:12:40;2.67;;;1.90;;
40515;SDS011;26216;53.724;9.898;2023-08-06T04:15:06;2.08;;;1.40;;
40515;SDS011;26216;53.724;9.898;2023-08-06T04:17:32;2.92;;;1.50;;
40515;SDS011;26216;53.724;9.898;2023-08-06T04:19:58;3.53;;;1.83;;
40515;SDS011;26216;53.724;9.898;2023-08-06T04:22:24;1.75;;;1.48;;
40515;SDS011;26216;53.724;9.898;2023-08-06T04:24:50;2.42;;;1.40;;
40515;SDS011;26216;53.724;9.898;2023-08-06T04:27:17;2.92;;;1.98;;
40515;SDS011;26216;53.724;9.898;2023-08-06T04:29:44;1.70;;;1.42;;
40515;SDS011;26216;53.724;9.898;2023-08-06T04:32:10;2.20;;;1.48;;
40515;SDS011;26216;53.724;9.898;2023-08-06T04:34:37;2.85;;;1.92;;
40515;SDS011;26216;53.724;9.898;2023-08-06T04:37:03;2.63;;;1.80;;
40515;SDS011;26216;53.724;9.898;2023-08-06T04:39:29;2.53;;;1.50;;
40515;SDS011;26216;53.724;9.898;2023-08-06T04:41:56;1.80;;;1.40;;
40515;SDS011;26216;53.724;9.898;2023-08-06T04:44:22;2.28;;;1.55;;
40515;SDS011;26216;53.724;9.898;2023-08-06T04:46:49;2.25;;;1.55;;
40515;SDS011;26216;53.724;9.898;2023-08-06T04:49:15;2.00;;;1.50;;
40515;SDS011;26216;53.724;9.898;2023-08-06T04:51:41;2.83;;;1.70;;
40515;SDS011;26216;53.724;9.898;2023-08-06T04:54:07;2.97;;;1.60;;
40515;SDS011;26216;53.724;9.898;2023-08-06T04:56:32;2.10;;;1.55;;
40515;SDS011;26216;53.724;9.898;2023-08-06T04:58:58;3.17;;;1.63;;
40515;SDS011;26216;53.724;9.898;2023-08-06T05:01:25;2.17;;;1.85;;
40515;SDS011;26216;53.724;9.898;2023-08-06T05:03:51;2.45;;;1.60;;
40515;SDS011;26216;53.724;9.898;2023-08-06T05:06:16;2.40;;;1.90;;
40515;SDS011;26216;53.724;9.898;2023-08-06T05:08:42;2.75;;;2.00;;
40515;SDS011;26216;53.724;9.898;2023-08-06T05:11:09;2.20;;;1.67;;
40515;SDS011;26216;53.724;9.898;2023-08-06T05:13:34;3.00;;;1.73;;
40515;SDS011;26216;53.724;9.898;2023-08-06T05:16:00;2.10;;;1.60;;
40515;SDS011;26216;53.724;9.898;2023-08-06T05:18:26;2.13;;;1.70;;
40515;SDS011;26216;53.724;9.898;2023-08-06T05:20:52;2.67;;;1.60;;
40515;SDS011;26216;53.724;9.898;2023-08-06T05:23:18;2.45;;;1.70;;
40515;SDS011;26216;53.724;9.898;2023-08-06T05:25:43;2.15;;;1.77;;
40515;SDS011;26216;53.724;9.898;2023-08-06T05:28:09;2.35;;;1.70;;
40515;SDS011;26216;53.724;9.898;2023-08-06T05:30:38;2.53;;;1.80;;
40515;SDS011;26216;53.724;9.898;2023-08-06T05:33:05;2.30;;;1.55;;
40515;SDS011;26216;53.724;9.898;2023-08-06T05:35:31;2.22;;;1.70;;
40515;SDS011;26216;53.724;9.898;2023-08-06T05:37:57;2.50;;;1.60;;
40515;SDS011;26216;53.724;9.898;2023-08-06T05:40:23;2.17;;;1.50;;
40515;SDS011;26216;53.724;9.898;2023-08-06T05:42:51;2.10;;;1.58;;
40515;SDS011;26216;53.724;9.898;2023-08-06T05:45:19;2.22;;;1.70;;
40515;SDS011;26216;53.724;9.898;2023-08-06T05:47:45;3.03;;;1.80;;
40515;SDS011;26216;53.724;9.898;2023-08-06T05:50:12;2.83;;;1.85;;
40515;SDS011;26216;53.724;9.898;2023-08-06T05:52:38;3.63;;;1.90;;
40515;SDS011;26216;53.724;9.898;2023-08-06T05:55:04;3.90;;;2.38;;
40515;SDS011;26216;53.724;9.898;2023-08-06T05:57:30;2.67;;;1.60;;
40515;SDS011;26216;53.724;9.898;2023-08-06T05:59:56;6.97;;;2.17;;
40515;SDS011;26216;53.724;9.898;2023-08-06T06:02:22;2.35;;;1.65;;
40515;SDS011;26216;53.724;9.898;2023-08-06T06:04:48;2.80;;;2.00;;
40515;SDS011;26216;53.724;9.898;2023-08-06T06:07:17;3.30;;;2.00;;
40515;SDS011;26216;53.724;9.898;2023-08-06T06:09:43;1.90;;;1.67;;
40515;SDS011;26216;53.724;9.898;2023-08-06T06:12:09;3.33;;;2.00;;
40515;SDS011;26216;53.724;9.898;2023-08-06T06:14:36;2.42;;;1.75;;
40515;SDS011;26216;53.724;9.898;2023-08-06T06:17:02;2.40;;;1.63;;
40515;SDS011;26216;53.724;9.898;2023-08-06T06:19:29;2.88;;;1.92;;
40515;SDS011;26216;53.724;9.898;2023-08-06T06:21:55;3.00;;;2.20;;
40515;SDS011;26216;53.724;9.898;2023-08-06T06:24:23;3.13;;;2.00;;
40515;SDS011;26216;53.724;9.898;2023-08-06T06:26:49;2.15;;;1.60;;
40515;SDS011;26216;53.724;9.898;2023-08-06T06:29:16;3.38;;;1.88;;
40515;SDS011;26216;53.724;9.898;2023-08-06T06:31:42;3.72;;;2.22;;
40515;SDS011;26216;53.724;9.898;2023-08-06T06:34:08;3.22;;;1.95;;
40515;SDS011;26216;53.724;9.898;2023-08-06T06:36:34;3.10;;;2.05;;
40515;SDS011;26216;53.724;9.898;2023-08-06T06:39:00;3.03;;;1.70;;
40515;SDS011;26216;53.724;9.898;2023-08-06T06:41:27;5.28;;;2.33;;
40515;SDS011;26216;53.724;9.898;2023-08-06T06:43:55;3.05;;;2.47;;
40515;SDS011;26216;53.724;9.898;2023-08-06T06:46:24;2.72;;;2.03;;
40515;SDS011;26216;53.724;9.898;2023-08-06T06:48:50;2.20;;;1.73;;
40515;SDS011;26216;53.724;9.898;2023-08-06T06:51:16;2.78;;;1.95;;
40515;SDS011;26216;53.724;9.898;2023-08-06T06:53:43;2.80;;;1.80;;
40515;SDS011;26216;53.724;9.898;2023-08-06T06:56:09;2.72;;;1.70;;
40515;SDS011;26216;53.724;9.898;2023-08-06T06:58:38;2.65;;;1.85;;
40515;SDS011;26216;53.724;9.898;2023-08-06T07:01:06;3.25;;;2.33;;
40515;SDS011;26216;53.724;9.898;2023-08-06T07:03:35;2.92;;;2.00;;
40515;SDS011;26216;53.724;9.898;2023-08-06T07:06:01;2.97;;;2.38;;
40515;SDS011;26216;53.724;9.898;2023-08-06T07:08:28;3.22;;;2.20;;
40515;SDS011;26216;53.724;9.898;2023-08-06T07:11:01;2.65;;;1.90;;
40515;SDS011;26216;53.724;9.898;2023-08-06T07:13:29;3.13;;;2.40;;
40515;SDS011;26216;53.724;9.898;2023-08-06T07:15:55;3.15;;;2.10;;
40515;SDS011;26216;53.724;9.898;2023-08-06T07:18:22;3.03;;;2.03;;
40515;SDS011;26216;53.724;9.898;2023-08-06T07:20:49;2.50;;;1.90;;
40515;SDS011;26216;53.724;9.898;2023-08-06T07:23:16;3.60;;;2.00;;
40515;SDS011;26216;53.724;9.898;2023-08-06T07:25:45;3.10;;;1.80;;
40515;SDS011;26216;53.724;9.898;2023-08-06T07:28:13;2.38;;;1.90;;
40515;SDS011;26216;53.724;9.898;2023-08-06T07:30:39;3.15;;;2.10;;
40515;SDS011;26216;53.724;9.898;2023-08-06T07:33:07;2.85;;;2.00;;
40515;SDS011;26216;53.724;9.898;2023-08-06T07:35:37;3.70;;;2.20;;
40515;SDS011;26216;53.724;9.898;2023-08-06T07:38:03;3.15;;;1.92;;
40515;SDS011;26216;53.724;9.898;2023-08-06T07:40:30;2.67;;;2.05;;
40515;SDS011;26216;53.724;9.898;2023-08-06T07:42:57;4.78;;;2.10;;
40515;SDS011;26216;53.724;9.898;2023-08-06T07:45:23;3.03;;;2.45;;
40515;SDS011;26216;53.724;9.898;2023-08-06T07:47:52;2.83;;;2.17;;
40515;SDS011;26216;53.724;9.898;2023-08-06T07:50:18;2.47;;;2.00;;
40515;SDS011;26216;53.724;9.898;2023-08-06T07:52:45;3.42;;;2.38;;
40515;SDS011;26216;53.724;9.898;2023-08-06T07:55:11;3.55;;;2.33;;
40515;SDS011;26216;53.724;9.898;2023-08-06T07:57:37;3.03;;;2.25;;
40515;SDS011;26216;53.724;9.898;2023-08-06T08:00:04;2.85;;;2.10;;
40515;SDS011;26216;53.724;9.898;2023-08-06T08:02:30;5.28;;;2.20;;
40515;SDS011;26216;53.724;9.898;2023-08-06T08:04:57;4.07;;;2.33;;
40515;SDS011;26216;53.724;9.898;2023-08-06T08:07:23;4.63;;;2.60;;
40515;SDS011;26216;53.724;9.898;2023-08-06T08:09:49;3.42;;;2.50;;
40515;SDS011;26216;53.724;9.898;2023-08-06T08:12:16;3.95;;;2.88;;
40515;SDS011;26216;53.724;9.898;2023-08-06T08:14:42;2.60;;;1.83;;
40515;SDS011;26216;53.724;9.898;2023-08-06T08:17:10;3.20;;;2.30;;
40515;SDS011;26216;53.724;9.898;2023-08-06T08:19:37;3.55;;;2.33;;
40515;SDS011;26216;53.724;9.898;2023-08-06T08:22:03;3.55;;;2.38;;
40515;SDS011;26216;53.724;9.898;2023-08-06T08:24:29;3.20;;;2.40;;
40515;SDS011;26216;53.724;9.898;2023-08-06T08:26:55;4.53;;;2.67;;
40515;SDS011;26216;53.724;9.898;2023-08-06T08:29:22;3.38;;;2.40;;
40515;SDS011;26216;53.724;9.898;2023-08-06T08:31:49;3.60;;;2.28;;
40515;SDS011;26216;53.724;9.898;2023-08-06T08:34:19;3.60;;;2.35;;
40515;SDS011;26216;53.724;9.898;2023-08-06T08:36:45;4.85;;;2.33;;
40515;SDS011;26216;53.724;9.898;2023-08-06T08:39:13;2.67;;;2.17;;
40515;SDS011;26216;53.724;9.898;2023-08-06T08:41:40;4.22;;;2.40;;
40515;SDS011;26216;53.724;9.898;2023-08-06T08:44:09;2.55;;;2.22;;
40515;SDS011;26216;53.724;9.898;2023-08-06T08:46:36;3.13;;;2.20;;
40515;SDS011;26216;53.724;9.898;2023-08-06T08:49:05;5.60;;;3.10;;
40515;SDS011;26216;53.724;9.898;2023-08-06T08:51:32;3.30;;;2.72;;
40515;SDS011;26216;53.724;9.898;2023-08-06T08:54:00;5.68;;;2.70;;
40515;SDS011;26216;53.724;9.898;2023-08-06T08:56:29;3.25;;;2.53;;
40515;SDS011;26216;53.724;9.898;2023-08-06T08:58:55;2.80;;;2.28;;
40515;SDS011;26216;53.724;9.898;2023-08-06T09:01:22;3.17;;;1.95;;
40515;SDS011;26216;53.724;9.898;2023-08-06T09:03:51;3.22;;;2.50;;
40515;SDS011;26216;53.724;9.898;2023-08-06T09:06:19;3.08;;;2.50;;
40515;SDS011;26216;53.724;9.898;2023-08-06T09:08:56;3.67;;;2.35;;
40515;SDS011;26216;53.724;9.898;2023-08-06T09:11:32;3.40;;;2.42;;
40515;SDS011;26216;53.724;9.898;2023-08-06T09:14:08;3.45;;;2.85;;
40515;SDS011;26216;53.724;9.898;2023-08-06T09:16:36;4.05;;;2.85;;
40515;SDS011;26216;53.724;9.898;2023-08-06T09:19:12;2.63;;;2.13;;
40515;SDS011;26216;53.724;9.898;2023-08-06T09:21:41;3.45;;;2.83;;
40515;SDS011;26216;53.724;9.898;2023-08-06T09:24:08;4.60;;;2.63;;
40515;SDS011;26216;53.724;9.898;2023-08-06T09:26:39;3.10;;;2.40;;
40515;SDS011;26216;53.724;9.898;2023-08-06T09:29:07;3.50;;;2.40;;
40515;SDS011;26216;53.724;9.898;2023-08-06T09:31:43;4.03;;;2.40;;
40515;SDS011;26216;53.724;9.898;2023-08-06T09:34:20;4.05;;;2.50;;
40515;SDS011;26216;53.724;9.898;2023-08-06T09:36:48;3.45;;;2.45;;
40515;SDS011;26216;53.724;9.898;2023-08-06T09:39:30;3.67;;;3.10;;
40515;SDS011;26216;53.724;9.898;2023-08-06T09:42:03;3.60;;;2.70;;
40515;SDS011;26216;53.724;9.898;2023-08-06T09:44:31;4.05;;;2.70;;
40515;SDS011;26216;53.724;9.898;2023-08-06T09:46:59;2.50;;;2.20;;
40515;SDS011;26216;53.724;9.898;2023-08-06T09:51:59;3.75;;;2.45;;
40515;SDS011;26216;53.724;9.898;2023-08-06T09:54:26;3.08;;;2.65;;
40515;SDS011;26216;53.724;9.898;2023-08-06T09:56:57;4.10;;;2.83;;
40515;SDS011;26216;53.724;9.898;2023-08-06T09:59:23;2.72;;;2.13;;
40515;SDS011;26216;53.724;9.898;2023-08-06T10:01:50;4.15;;;2.45;;
40515;SDS011;26216;53.724;9.898;2023-08-06T10:04:19;3.30;;;2.70;;
40515;SDS011;26216;53.724;9.898;2023-08-06T10:06:46;2.95;;;2.38;;
40515;SDS011;26216;53.724;9.898;2023-08-06T10:09:13;3.28;;;2.45;;
40515;SDS011;26216;53.724;9.898;2023-08-06T10:11:40;3.58;;;2.38;;
40515;SDS011;26216;53.724;9.898;2023-08-06T10:14:08;4.63;;;2.63;;
40515;SDS011;26216;53.724;9.898;2023-08-06T10:16:41;3.28;;;2.70;;
40515;SDS011;26216;53.724;9.898;2023-08-06T10:19:11;2.90;;;2.33;;
40515;SDS011;26216;53.724;9.898;2023-08-06T10:21:39;4.88;;;2.72;;
40515;SDS011;26216;53.724;9.898;2023-08-06T10:24:08;3.63;;;2.78;;
40515;SDS011;26216;53.724;9.898;2023-08-06T10:26:40;2.88;;;2.33;;
40515;SDS011;26216;53.724;9.898;2023-08-06T10:32:08;5.53;;;3.13;;
40515;SDS011;26216;53.724;9.898;2023-08-06T10:34:56;4.10;;;2.90;;
40515;SDS011;26216;53.724;9.898;2023-08-06T10:37:23;3.15;;;2.63;;
40515;SDS011;26216;53.724;9.898;2023-08-06T10:39:59;4.10;;;3.28;;
40515;SDS011;26216;53.724;9.898;2023-08-06T10:42:28;3.90;;;2.75;;
40515;SDS011;26216;53.724;9.898;2023-08-06T10:45:11;3.53;;;2.80;;
40515;SDS011;26216;53.724;9.898;2023-08-06T10:47:42;3.38;;;2.50;;
40515;SDS011;26216;53.724;9.898;2023-08-06T10:50:15;3.03;;;2.40;;
40515;SDS011;26216;53.724;9.898;2023-08-06T10:52:43;4.65;;;2.60;;
40515;SDS011;26216;53.724;9.898;2023-08-06T10:55:11;2.80;;;2.50;;
40515;SDS011;26216;53.724;9.898;2023-08-06T10:57:38;4.13;;;2.70;;
40515;SDS011;26216;53.724;9.898;2023-08-06T11:00:07;2.50;;;2.30;;
40515;SDS011;26216;53.724;9.898;2023-08-06T11:02:35;3.30;;;2.58;;
40515;SDS011;26216;53.724;9.898;2023-08-06T11:05:13;3.20;;;2.40;;
40515;SDS011;26216;53.724;9.898;2023-08-06T11:07:39;3.45;;;2.70;;
40515;SDS011;26216;53.724;9.898;2023-08-06T11:10:10;4.22;;;2.97;;
40515;SDS011;26216;53.724;9.898;2023-08-06T11:12:38;3.80;;;2.50;;
40515;SDS011;26216;53.724;9.898;2023-08-06T11:15:05;3.17;;;2.85;;
40515;SDS011;26216;53.724;9.898;2023-08-06T11:17:32;3.65;;;2.55;;
40515;SDS011;26216;53.724;9.898;2023-08-06T11:19:59;4.20;;;2.97;;
40515;SDS011;26216;53.724;9.898;2023-08-06T11:22:27;3.42;;;2.63;;
40515;SDS011;26216;53.724;9.898;2023-08-06T11:24:53;3.85;;;3.25;;
40515;SDS011;26216;53.724;9.898;2023-08-06T11:27:20;4.18;;;3.75;;
40515;SDS011;26216;53.724;9.898;2023-08-06T11:29:47;4.93;;;3.60;;
40515;SDS011;26216;53.724;9.898;2023-08-06T11:32:13;5.05;;;3.67;;
40515;SDS011;26216;53.724;9.898;2023-08-06T11:34:39;5.45;;;3.90;;
40515;SDS011;26216;53.724;9.898;2023-08-06T11:37:11;3.75;;;3.05;;
40515;SDS011;26216;53.724;9.898;2023-08-06T11:39:38;5.07;;;3.55;;
40515;SDS011;26216;53.724;9.898;2023-08-06T11:44:36;3.33;;;2.38;;
40515;SDS011;26216;53.724;9.898;2023-08-06T11:47:03;4.95;;;3.10;;
40515;SDS011;26216;53.724;9.898;2023-08-06T11:52:08;4.28;;;3.65;;
40515;SDS011;26216;53.724;9.898;2023-08-06T11:55:02;3.35;;;2.70;;
40515;SDS011;26216;53.724;9.898;2023-08-06T11:57:33;3.83;;;2.97;;
40515;SDS011;26216;53.724;9.898;2023-08-06T12:00:03;2.55;;;2.28;;
40515;SDS011;26216;53.724;9.898;2023-08-06T12:02:32;3.42;;;2.78;;
40515;SDS011;26216;53.724;9.898;2023-08-06T12:05:09;3.72;;;2.80;;
40515;SDS011;26216;53.724;9.898;2023-08-06T12:07:37;3.83;;;2.90;;
40515;SDS011;26216;53.724;9.898;2023-08-06T12:10:07;3.63;;;2.60;;
40515;SDS011;26216;53.724;9.898;2023-08-06T12:12:34;6.07;;;3.55;;
40515;SDS011;26216;53.724;9.898;2023-08-06T12:15:00;4.20;;;2.65;;
40515;SDS011;26216;53.724;9.898;2023-08-06T12:17:29;4.90;;;2.60;;
40515;SDS011;26216;53.724;9.898;2023-08-06T12:19:55;4.35;;;2.67;;
40515;SDS011;26216;53.724;9.898;2023-08-06T12:22:21;2.78;;;2.42;;
40515;SDS011;26216;53.724;9.898;2023-08-06T12:24:48;3.28;;;2.58;;
40515;SDS011;26216;53.724;9.898;2023-08-06T12:27:14;3.47;;;2.60;;
40515;SDS011;26216;53.724;9.898;2023-08-06T12:29:43;3.33;;;2.85;;
40515;SDS011;26216;53.724;9.898;2023-08-06T12:32:11;3.35;;;2.90;;
40515;SDS011;26216;53.724;9.898;2023-08-06T12:34:40;2.95;;;2.28;;
40515;SDS011;26216;53.724;9.898;2023-08-06T12:37:08;3.95;;;2.60;;
40515;SDS011;26216;53.724;9.898;2023-08-06T12:39:35;3.13;;;2.58;;
40515;SDS011;26216;53.724;9.898;2023-08-06T12:42:03;3.10;;;2.42;;
40515;SDS011;26216;53.724;9.898;2023-08-06T12:44:48;3.17;;;2.55;;
40515;SDS011;26216;53.724;9.898;2023-08-06T12:47:15;4.10;;;3.10;;
40515;SDS011;26216;53.724;9.898;2023-08-06T12:49:45;4.13;;;2.50;;
40515;SDS011;26216;53.724;9.898;2023-08-06T12:52:12;4.05;;;2.50;;
40515;SDS011;26216;53.724;9.898;2023-08-06T12:54:40;3.67;;;2.55;;
40515;SDS011;26216;53.724;9.898;2023-08-06T12:57:06;4.53;;;2.80;;
40515;SDS011;26216;53.724;9.898;2023-08-06T12:59:33;5.47;;;3.17;;
40515;SDS011;26216;53.724;9.898;2023-08-06T13:02:02;5.32;;;3.45;;
40515;SDS011;26216;53.724;9.898;2023-08-06T13:04:28;4.38;;;3.05;;
40515;SDS011;26216;53.724;9.898;2023-08-06T13:06:54;3.63;;;2.58;;
40515;SDS011;26216;53.724;9.898;2023-08-06T13:09:20;3.47;;;2.80;;
40515;SDS011;26216;53.724;9.898;2023-08-06T13:11:46;4.97;;;3.15;;
40515;SDS011;26216;53.724;9.898;2023-08-06T13:14:15;3.25;;;2.40;;
40515;SDS011;26216;53.724;9.898;2023-08-06T13:16:41;4.20;;;2.33;;
40515;SDS011;26216;53.724;9.898;2023-08-06T13:19:09;3.17;;;2.25;;
40515;SDS011;26216;53.724;9.898;2023-08-06T13:21:58;3.20;;;2.15;;
40515;SDS011;26216;53.724;9.898;2023-08-06T13:24:27;3.50;;;1.75;;
40515;SDS011;26216;53.724;9.898;2023-08-06T13:26:53;2.30;;;1.60;;
40515;SDS011;26216;53.724;9.898;2023-08-06T13:29:20;2.53;;;1.85;;
40515;SDS011;26216;53.724;9.898;2023-08-06T13:31:46;4.25;;;2.28;;
40515;SDS011;26216;53.724;9.898;2023-08-06T13:34:12;4.85;;;2.00;;
40515;SDS011;26216;53.724;9.898;2023-08-06T13:36:45;2.72;;;1.90;;
40515;SDS011;26216;53.724;9.898;2023-08-06T13:39:11;2.83;;;1.40;;
40515;SDS011;26216;53.724;9.898;2023-08-06T13:41:37;2.03;;;1.30;;
40515;SDS011;26216;53.724;9.898;2023-08-06T13:44:04;2.55;;;1.80;;
40515;SDS011;26216;53.724;9.898;2023-08-06T13:46:30;3.45;;;2.65;;
40515;SDS011;26216;53.724;9.898;2023-08-06T13:48:57;5.53;;;4.03;;
40515;SDS011;26216;53.724;9.898;2023-08-06T13:51:23;4.93;;;3.67;;
40515;SDS011;26216;53.724;9.898;2023-08-06T13:53:52;4.03;;;3.28;;
40515;SDS011;26216;53.724;9.898;2023-08-06T13:56:20;3.50;;;2.60;;
40515;SDS011;26216;53.724;9.898;2023-08-06T13:58:46;2.67;;;2.00;;
40515;SDS011;26216;53.724;9.898;2023-08-06T14:01:12;3.72;;;2.20;;
40515;SDS011;26216;53.724;9.898;2023-08-06T14:03:38;3.90;;;2.45;;
40515;SDS011;26216;53.724;9.898;2023-08-06T14:06:04;3.50;;;2.05;;
40515;SDS011;26216;53.724;9.898;2023-08-06T14:08:30;2.97;;;1.33;;
40515;SDS011;26216;53.724;9.898;2023-08-06T14:10:56;2.13;;;1.40;;
40515;SDS011;26216;53.724;9.898;2023-08-06T14:13:22;1.85;;;1.50;;
40515;SDS011;26216;53.724;9.898;2023-08-06T14:15:48;2.13;;;1.50;;
40515;SDS011;26216;53.724;9.898;2023-08-06T14:18:14;1.67;;;1.27;;
40515;SDS011;26216;53.724;9.898;2023-08-06T14:20:41;1.77;;;1.52;;
40515;SDS011;26216;53.724;9.898;2023-08-06T14:23:07;2.47;;;1.35;;
40515;SDS011;26216;53.724;9.898;2023-08-06T14:25:33;2.55;;;1.40;;
40515;SDS011;26216;53.724;9.898;2023-08-06T14:27:59;1.90;;;1.25;;
40515;SDS011;26216;53.724;9.898;2023-08-06T14:30:25;1.23;;;1.10;;
40515;SDS011;26216;53.724;9.898;2023-08-06T14:32:51;2.17;;;1.50;;
40515;SDS011;26216;53.724;9.898;2023-08-06T14:35:17;2.58;;;1.50;;
40515;SDS011;26216;53.724;9.898;2023-08-06T14:37:43;2.08;;;1.45;;
40515;SDS011;26216;53.724;9.898;2023-08-06T14:40:10;1.98;;;1.60;;
40515;SDS011;26216;53.724;9.898;2023-08-06T14:42:37;1.67;;;1.38;;
40515;SDS011;26216;53.724;9.898;2023-08-06T14:45:03;2.42;;;1.27;;
40515;SDS011;26216;53.724;9.898;2023-08-06T14:47:29;1.63;;;1.30;;
40515;SDS011;26216;53.724;9.898;2023-08-06T14:49:55;2.47;;;1.60;;
40515;SDS011;26216;53.724;9.898;2023-08-06T14:52:21;2.85;;;1.67;;
40515;SDS011;26216;53.724;9.898;2023-08-06T14:54:47;1.80;;;1.38;;
40515;SDS011;26216;53.724;9.898;2023-08-06T14:57:13;2.67;;;1.60;;
40515;SDS011;26216;53.724;9.898;2023-08-06T14:59:39;2.47;;;1.90;;
40515;SDS011;26216;53.724;9.898;2023-08-06T15:02:05;2.53;;;1.40;;
40515;SDS011;26216;53.724;9.898;2023-08-06T15:04:31;3.15;;;2.08;;
40515;SDS011;26216;53.724;9.898;2023-08-06T15:07:00;2.15;;;1.25;;
40515;SDS011;26216;53.724;9.898;2023-08-06T15:09:26;1.60;;;1.10;;